createdAt,value
2019-02-05T00:00:58.524Z,7.03
2019-02-05T00:03:39.226Z,7.03
2019-02-05T00:06:20.599Z,7.60
2019-02-05T00:09:01.740Z,7.50
2019-02-05T00:11:42.508Z,7.07
2019-02-05T00:14:24.021Z,7.30
2019-02-05T00:17:04.976Z,8.13
2019-02-05T00:19:45.766Z,9.80
2019-02-05T00:22:26.448Z,7.00
2019-02-05T00:25:07.353Z,8.43
2019-02-05T00:27:48.304Z,8.13
2019-02-05T00:30:28.899Z,7.63
2019-02-05T00:33:09.747Z,8.20
2019-02-05T00:35:50.416Z,7.67
2019-02-05T00:38:31.622Z,7.47
2019-02-05T00:41:12.651Z,7.30
2019-02-05T00:43:53.455Z,7.37
2019-02-05T00:46:34.224Z,7.93
2019-02-05T00:49:15.672Z,8.23
2019-02-05T00:51:56.956Z,6.97
2019-02-05T00:54:38.409Z,7.70
2019-02-05T00:57:19.480Z,8.40
2019-02-05T00:59:48.607Z,8.57
2019-02-05T01:02:37.075Z,8.43
2019-02-05T01:05:25.543Z,8.07
2019-02-05T01:08:14.028Z,8.43
2019-02-05T01:11:01.738Z,7.90
2019-02-05T01:13:49.955Z,8.97
2019-02-05T01:16:31.121Z,8.00
2019-02-05T01:19:12.236Z,8.03
2019-02-05T01:21:53.676Z,9.30
2019-02-05T01:24:35.260Z,8.30
2019-02-05T01:27:16.147Z,8.50
2019-02-05T01:29:56.931Z,8.30
2019-02-05T01:32:38.492Z,8.30
2019-02-05T01:35:20.740Z,8.03
2019-02-05T01:38:01.413Z,6.77
2019-02-05T01:40:42.194Z,8.33
2019-02-05T01:43:23.023Z,8.47
2019-02-05T01:46:03.999Z,8.70
2019-02-05T01:48:44.704Z,8.70
2019-02-05T01:51:25.944Z,8.00
2019-02-05T01:54:07.042Z,8.43
2019-02-05T01:56:47.879Z,8.60
2019-02-05T01:59:28.491Z,8.80
2019-02-05T02:02:09.495Z,6.53
2019-02-05T02:04:50.876Z,8.10
2019-02-05T02:07:20.011Z,8.60
2019-02-05T02:10:09.107Z,8.43
2019-02-05T02:12:57.975Z,9.07
2019-02-05T02:15:46.188Z,7.97
2019-02-05T02:18:26.610Z,9.30
2019-02-05T02:21:07.507Z,7.67
2019-02-05T02:23:48.453Z,9.30
2019-02-05T02:26:29.280Z,9.53
2019-02-05T02:29:10.468Z,8.60
2019-02-05T02:31:51.113Z,8.30
2019-02-05T02:34:32.178Z,8.60
2019-02-05T02:37:13.084Z,8.40
2019-02-05T02:39:53.895Z,9.60
2019-02-05T02:42:34.966Z,8.40
2019-02-05T02:45:15.589Z,8.00
2019-02-05T02:47:56.671Z,8.40
2019-02-05T02:50:38.090Z,8.40
2019-02-05T02:53:18.938Z,9.83
2019-02-05T02:55:59.639Z,9.07
2019-02-05T02:58:40.733Z,8.90
2019-02-05T03:01:21.672Z,9.23
2019-02-05T03:04:02.396Z,9.10
2019-02-05T03:06:42.998Z,8.60
2019-02-05T03:09:23.788Z,8.53
2019-02-05T03:12:04.688Z,9.87
2019-02-05T03:14:45.359Z,9.07
2019-02-05T03:17:26.161Z,9.87
2019-02-05T03:19:55.890Z,9.80
2019-02-05T03:22:45.333Z,9.50
2019-02-05T03:25:34.103Z,9.73
2019-02-05T03:28:03.570Z,9.23
2019-02-05T03:30:51.852Z,9.63
2019-02-05T03:33:41.804Z,9.13
2019-02-05T03:36:30.364Z,9.60
2019-02-05T03:39:18.671Z,9.67
2019-02-05T03:42:06.947Z,9.63
2019-02-05T03:44:55.167Z,9.57
2019-02-05T03:47:43.575Z,9.30
2019-02-05T03:50:52.611Z,9.60
2019-02-05T03:54:02.110Z,8.00
2019-02-05T03:57:11.354Z,8.87
2019-02-05T04:00:18.666Z,8.90
2019-02-05T04:03:26.323Z,9.97
2019-02-05T04:06:33.671Z,9.80
2019-02-05T04:09:40.984Z,9.27
2019-02-05T04:12:48.378Z,10.63
2019-02-05T04:19:02.126Z,8.67
2019-02-05T04:21:43.209Z,10.00
2019-02-05T04:24:24.387Z,10.97
2019-02-05T04:27:05.264Z,10.90
2019-02-05T04:29:46.662Z,11.30
2019-02-05T04:32:28.224Z,10.43
2019-02-05T04:35:09.631Z,12.23
2019-02-05T04:37:50.935Z,9.70
2019-02-05T04:40:31.379Z,11.80
2019-02-05T04:43:12.007Z,10.90
2019-02-05T04:46:19.566Z,10.43
2019-02-05T04:49:27.223Z,10.97
2019-02-05T04:52:34.511Z,10.33
2019-02-05T04:55:30.288Z,10.57
2019-02-05T04:58:37.917Z,16.43
2019-02-05T05:01:45.605Z,17.00
2019-02-05T05:04:27.095Z,13.03
2019-02-05T05:13:22.519Z,13.13
2019-02-05T05:16:03.547Z,11.67
2019-02-05T05:18:44.658Z,11.57
2019-02-05T05:21:25.912Z,11.20
2019-02-05T05:24:07.498Z,17.07
2019-02-05T05:26:48.676Z,18.43
2019-02-05T05:29:33.009Z,12.23
2019-02-05T05:32:12.651Z,13.03
2019-02-05T05:34:56.910Z,11.27
2019-02-05T05:37:37.326Z,11.30
2019-02-05T05:40:18.615Z,12.10
2019-02-05T05:42:48.078Z,14.37
2019-02-05T05:45:17.684Z,13.53
2019-02-05T05:47:47.248Z,14.43
2019-02-05T05:50:16.900Z,14.80
2019-02-05T05:53:05.191Z,14.40
2019-02-05T05:55:53.741Z,14.07
2019-02-05T05:58:42.283Z,12.97
2019-02-05T06:01:30.939Z,13.13
2019-02-05T06:04:11.688Z,12.73
2019-02-05T06:06:52.747Z,12.00
2019-02-05T06:09:33.178Z,12.43
2019-02-05T06:12:13.799Z,12.63
2019-02-05T06:14:54.556Z,12.50
2019-02-05T06:17:35.303Z,15.20
2019-02-05T06:20:16.138Z,14.20
2019-02-05T06:22:57.480Z,14.20
2019-02-05T06:25:38.600Z,18.50
2019-02-05T06:28:19.596Z,13.63
2019-02-05T06:31:00.860Z,17.00
2019-02-05T06:33:41.993Z,13.93
2019-02-05T06:36:23.212Z,16.40
2019-02-05T06:39:04.627Z,28.67
2019-02-05T06:41:45.614Z,20.97
2019-02-05T06:44:26.395Z,15.10
2019-02-05T06:47:07.881Z,17.33
2019-02-05T06:49:49.423Z,27.60
2019-02-05T06:52:18.963Z,14.93
2019-02-05T06:55:07.619Z,15.03
2019-02-05T06:57:36.899Z,15.57
2019-02-05T07:00:25.210Z,15.07
2019-02-05T07:03:05.873Z,19.80
2019-02-05T07:05:35.509Z,13.37
2019-02-05T07:08:24.041Z,15.63
2019-02-05T07:11:12.341Z,14.77
2019-02-05T07:14:21.824Z,16.13
2019-02-05T07:16:51.165Z,13.77
2019-02-05T07:19:20.691Z,15.20
2019-02-05T07:22:09.340Z,14.67
2019-02-05T07:24:57.910Z,15.13
2019-02-05T07:27:46.294Z,15.43
2019-02-05T07:30:19.097Z,13.80
2019-02-05T07:32:48.466Z,15.63
2019-02-05T07:35:17.932Z,16.30
2019-02-05T07:37:47.167Z,15.20
2019-02-05T07:40:17.791Z,15.83
2019-02-05T07:42:47.318Z,17.13
2019-02-05T07:45:18.175Z,17.10
2019-02-05T07:47:47.659Z,16.93
2019-02-05T07:50:19.502Z,16.90
2019-02-05T07:52:49.026Z,16.17
2019-02-05T07:55:37.631Z,17.10
2019-02-05T07:58:25.911Z,18.10
2019-02-05T08:01:14.206Z,16.13
2019-02-05T08:03:54.740Z,17.30
2019-02-05T08:06:35.456Z,18.67
2019-02-05T08:09:16.615Z,18.13
2019-02-05T08:11:57.907Z,17.83
2019-02-05T08:14:38.650Z,16.80
2019-02-05T08:17:19.544Z,17.27
2019-02-05T08:20:00.983Z,16.00
2019-02-05T08:22:42.062Z,17.33
2019-02-05T08:25:12.983Z,16.53
2019-02-05T08:28:01.291Z,18.70
2019-02-05T08:30:49.625Z,16.83
2019-02-05T08:33:37.903Z,18.90
2019-02-05T08:36:27.838Z,18.10
2019-02-05T08:39:17.950Z,17.17
2019-02-05T08:42:06.267Z,16.50
2019-02-05T08:44:54.468Z,18.33
2019-02-05T08:47:42.776Z,18.60
2019-02-05T08:50:51.771Z,17.47
2019-02-05T08:53:40.316Z,18.90
2019-02-05T08:56:28.631Z,18.27
2019-02-05T08:59:16.842Z,19.17
2019-02-05T09:02:05.647Z,17.50
2019-02-05T09:04:46.920Z,18.60
2019-02-05T09:07:27.731Z,19.00
2019-02-05T09:10:08.475Z,17.77
2019-02-05T09:12:48.967Z,19.50
2019-02-05T09:15:29.933Z,17.70
2019-02-05T09:18:10.764Z,18.00
2019-02-05T09:20:39.974Z,18.33
2019-02-05T09:23:28.279Z,19.93
2019-02-05T09:26:18.227Z,19.30
2019-02-05T09:29:06.771Z,19.60
2019-02-05T09:31:55.326Z,19.37
2019-02-05T09:34:43.863Z,18.97
2019-02-05T09:37:32.422Z,18.30
2019-02-05T09:40:22.440Z,19.50
2019-02-05T09:43:10.986Z,18.80
2019-02-05T09:46:00.919Z,19.13
2019-02-05T09:48:42.074Z,18.70
2019-02-05T09:51:23.043Z,17.93
2019-02-05T09:54:03.878Z,18.43
2019-02-05T09:56:45.624Z,19.27
2019-02-05T09:59:26.167Z,17.93
2019-02-05T10:02:07.445Z,18.07
2019-02-05T10:04:48.152Z,18.17
2019-02-05T10:07:29.216Z,19.90
2019-02-05T10:10:10.043Z,18.73
2019-02-05T10:12:51.483Z,18.77
2019-02-05T10:15:32.119Z,20.10
2019-02-05T10:18:13.416Z,17.90
2019-02-05T10:20:54.284Z,17.63
2019-02-05T10:23:35.056Z,17.27
2019-02-05T10:26:04.479Z,18.47
2019-02-05T10:28:53.243Z,18.00
2019-02-05T10:31:41.574Z,17.40
2019-02-05T10:34:33.742Z,17.83
2019-02-05T10:37:06.729Z,17.70
2019-02-05T10:39:47.999Z,17.90
2019-02-05T10:42:29.236Z,17.67
2019-02-05T10:45:09.850Z,16.60
2019-02-05T10:47:50.687Z,17.13
2019-02-05T10:50:32.516Z,17.10
2019-02-05T10:53:13.738Z,16.37
2019-02-05T10:55:54.528Z,18.93
2019-02-05T10:58:36.263Z,15.80
2019-02-05T11:01:17.578Z,16.80
2019-02-05T11:03:59.571Z,16.03
2019-02-05T11:06:40.749Z,17.33
2019-02-05T11:09:22.131Z,16.10
2019-02-05T11:11:51.359Z,16.60
2019-02-05T11:14:39.707Z,19.27
2019-02-05T11:17:28.010Z,17.60
2019-02-05T11:20:17.518Z,16.10
2019-02-05T11:23:07.735Z,17.67
2019-02-05T11:25:56.089Z,16.20
2019-02-05T11:28:44.691Z,17.00
2019-02-05T11:31:33.242Z,17.00
2019-02-05T11:34:14.915Z,17.17
2019-02-05T11:36:56.560Z,15.70
2019-02-05T11:39:38.144Z,17.90
2019-02-05T11:42:19.554Z,16.60
2019-02-05T11:45:01.193Z,15.93
2019-02-05T11:47:42.908Z,15.80
2019-02-05T11:50:24.252Z,15.23
2019-02-05T11:53:05.259Z,16.90
2019-02-05T11:55:46.502Z,17.10
2019-02-05T11:58:27.215Z,16.20
2019-02-05T12:01:38.321Z,16.27
2019-02-05T12:04:12.669Z,16.93
2019-02-05T12:06:54.019Z,16.77
2019-02-05T12:09:35.101Z,16.10
2019-02-05T12:12:05.024Z,18.30
2019-02-05T12:14:46.565Z,15.40
2019-02-05T12:17:29.091Z,17.50
2019-02-05T12:19:59.297Z,16.97
2019-02-05T12:22:48.151Z,18.90
2019-02-05T12:25:38.562Z,16.03
2019-02-05T12:28:08.543Z,16.63
2019-02-05T12:30:57.088Z,18.77
2019-02-05T12:33:46.365Z,19.60
2019-02-05T12:36:35.559Z,15.60
2019-02-05T12:39:24.112Z,17.37
2019-02-05T12:42:12.558Z,17.57
2019-02-05T12:45:01.190Z,16.60
2019-02-05T12:47:50.163Z,17.23
2019-02-05T12:50:38.783Z,17.30
2019-02-05T12:53:28.998Z,17.17
2019-02-05T12:56:17.243Z,18.10
2019-02-05T12:59:05.564Z,15.63
2019-02-05T13:01:53.779Z,15.70
2019-02-05T13:04:42.015Z,14.80
2019-02-05T13:07:30.232Z,15.60
2019-02-05T13:10:19.884Z,16.80
2019-02-05T13:13:08.467Z,15.73
2019-02-05T13:15:50.124Z,15.57
2019-02-05T13:18:19.692Z,17.20
2019-02-05T13:21:07.913Z,16.87
2019-02-05T13:23:56.231Z,16.53
2019-02-05T13:26:44.718Z,18.53
2019-02-05T13:29:33.004Z,15.60
2019-02-05T13:32:21.223Z,14.80
2019-02-05T13:35:09.759Z,16.50
2019-02-05T13:37:58.523Z,15.50
2019-02-05T13:40:47.228Z,14.50
2019-02-05T13:43:35.474Z,22.77
2019-02-05T13:46:23.704Z,15.80
2019-02-05T13:49:12.404Z,16.03
2019-02-05T13:52:00.599Z,15.73
2019-02-05T13:54:49.076Z,15.73
2019-02-05T13:57:29.649Z,14.40
2019-02-05T14:00:11.372Z,14.20
2019-02-05T14:02:52.783Z,14.80
2019-02-05T14:05:33.369Z,13.50
2019-02-05T14:08:14.421Z,14.20
2019-02-05T14:10:54.863Z,14.50
2019-02-05T14:13:35.993Z,15.37
2019-02-05T14:16:25.741Z,14.87
2019-02-05T14:19:15.408Z,14.70
2019-02-05T14:22:03.671Z,15.50
2019-02-05T14:24:52.009Z,13.83
2019-02-05T14:27:40.383Z,12.57
2019-02-05T14:30:47.727Z,13.87
2019-02-05T14:33:28.551Z,15.37
2019-02-05T14:36:09.415Z,11.97
2019-02-05T14:38:50.472Z,13.27
2019-02-05T14:41:31.843Z,12.33
2019-02-05T14:44:13.338Z,13.53
2019-02-05T14:46:54.088Z,13.90
2019-02-05T14:49:34.521Z,13.90
2019-02-05T14:52:15.648Z,12.87
2019-02-05T14:54:57.071Z,12.97
2019-02-05T14:57:38.252Z,12.60
2019-02-05T15:00:18.623Z,13.17
2019-02-05T15:03:02.026Z,13.60
2019-02-05T15:05:42.190Z,15.07
2019-02-05T15:11:06.027Z,13.73
2019-02-05T15:13:46.779Z,14.53
2019-02-05T15:16:27.219Z,15.87
2019-02-05T15:19:08.648Z,15.63
2019-02-05T15:21:49.384Z,15.93
2019-02-05T15:24:37.908Z,14.63
2019-02-05T15:27:13.283Z,15.07
2019-02-05T15:29:54.602Z,15.97
2019-02-05T15:32:55.196Z,15.43
2019-02-05T15:35:35.750Z,16.37
2019-02-05T15:38:17.124Z,17.00
2019-02-05T15:40:58.326Z,16.03
2019-02-05T15:43:39.245Z,15.20
2019-02-05T15:46:20.658Z,14.80
2019-02-05T15:49:02.528Z,14.70
2019-02-05T15:51:43.919Z,15.77
2019-02-05T15:54:24.738Z,16.80
2019-02-05T15:57:05.529Z,16.00
2019-02-05T15:59:46.404Z,16.20
2019-02-05T16:02:28.096Z,15.63
2019-02-05T16:05:08.980Z,15.07
2019-02-05T16:07:49.919Z,15.73
2019-02-05T16:10:30.720Z,15.57
2019-02-05T16:13:12.258Z,15.47
2019-02-05T16:15:53.327Z,15.90
2019-02-05T16:18:34.136Z,15.83
2019-02-05T16:21:15.488Z,14.23
2019-02-05T16:23:58.238Z,14.93
2019-02-05T16:26:39.775Z,14.87
2019-02-05T16:29:20.803Z,15.53
2019-02-05T16:32:01.951Z,14.97
2019-02-05T16:34:42.516Z,15.30
2019-02-05T16:37:24.393Z,15.60
2019-02-05T16:40:05.303Z,15.80
2019-02-05T16:42:45.966Z,14.93
2019-02-05T16:45:27.550Z,14.57
2019-02-05T16:48:09.199Z,14.17
2019-02-05T16:50:50.755Z,15.60
2019-02-05T16:53:32.159Z,16.20
2019-02-05T16:56:13.404Z,15.53
2019-02-05T16:58:54.732Z,15.07
2019-02-05T17:01:35.486Z,14.97
2019-02-05T17:04:16.224Z,14.97
2019-02-05T17:06:57.664Z,14.90
2019-02-05T17:09:38.834Z,14.10
2019-02-05T17:12:19.510Z,17.20
2019-02-05T17:15:00.369Z,16.70
2019-02-05T17:17:41.185Z,17.40
2019-02-05T17:20:22.119Z,17.93
2019-02-05T17:23:02.806Z,18.83
2019-02-05T17:25:43.688Z,19.10
2019-02-05T17:28:24.354Z,19.57
2019-02-05T17:31:05.119Z,29.70
2019-02-05T17:33:46.295Z,21.00
2019-02-05T17:36:27.762Z,20.00
2019-02-05T17:39:09.083Z,22.17
2019-02-05T17:41:50.189Z,21.10
2019-02-05T17:44:31.619Z,24.93
2019-02-05T17:47:01.516Z,20.50
2019-02-05T17:49:49.796Z,21.10
2019-02-05T17:52:38.043Z,18.40
2019-02-05T17:55:26.497Z,19.67
2019-02-05T17:58:15.078Z,17.17
2019-02-05T18:01:22.615Z,19.50
2019-02-05T18:04:11.344Z,19.07
2019-02-05T18:06:59.736Z,16.77
2019-02-05T18:09:47.931Z,17.60
2019-02-05T18:12:36.311Z,22.73
2019-02-05T18:15:17.485Z,21.20
2019-02-05T18:17:58.592Z,17.80
2019-02-05T18:20:28.007Z,20.47
2019-02-05T18:23:16.323Z,23.10
2019-02-05T18:26:04.631Z,21.60
2019-02-05T18:28:53.163Z,20.97
2019-02-05T18:31:41.659Z,16.97
2019-02-05T18:34:29.863Z,18.53
2019-02-05T18:37:18.115Z,16.97
2019-02-05T18:40:06.077Z,17.50
2019-02-05T18:42:54.424Z,19.90
2019-02-05T18:45:42.632Z,23.20
2019-02-05T18:48:32.843Z,25.27
2019-02-05T18:51:21.081Z,21.10
2019-02-05T18:54:09.331Z,20.47
2019-02-05T18:56:57.831Z,19.90
2019-02-05T18:59:46.292Z,21.80
2019-02-05T19:02:15.446Z,20.97
2019-02-05T19:04:44.927Z,21.30
2019-02-05T19:07:34.833Z,21.40
2019-02-05T19:10:23.991Z,20.73
2019-02-05T19:12:53.883Z,22.10
2019-02-05T19:15:25.478Z,21.93
2019-02-05T19:17:54.903Z,19.47
2019-02-05T19:20:26.059Z,17.57
2019-02-05T19:23:14.376Z,17.03
2019-02-05T19:26:21.899Z,17.43
2019-02-05T19:29:18.487Z,15.73
2019-02-05T19:32:00.403Z,15.80
2019-02-05T19:34:48.651Z,16.03
2019-02-05T19:37:36.919Z,19.50
2019-02-05T19:40:25.131Z,17.27
2019-02-05T19:46:26.264Z,18.30
2019-02-05T19:49:25.684Z,17.63
2019-02-05T19:52:14.135Z,15.43
2019-02-05T19:55:02.386Z,16.80
2019-02-05T19:57:52.469Z,18.23
2019-02-05T20:03:09.699Z,18.70
2019-02-05T20:05:50.430Z,19.30
2019-02-05T20:08:31.467Z,19.83
2019-02-05T20:11:12.143Z,20.00
2019-02-05T20:13:53.742Z,18.63
2019-02-05T20:16:34.688Z,17.93
2019-02-05T20:19:16.340Z,17.60
2019-02-05T20:21:57.663Z,16.60
2019-02-05T20:24:39.218Z,15.30
2019-02-05T20:27:20.450Z,16.50
2019-02-05T20:30:01.695Z,16.03
2019-02-05T20:32:42.644Z,16.10
2019-02-05T20:35:23.903Z,17.73
2019-02-05T20:38:04.626Z,17.10
2019-02-05T20:40:45.896Z,16.37
2019-02-05T20:43:26.970Z,17.03
2019-02-05T20:46:08.035Z,18.50
2019-02-05T20:48:49.736Z,16.70
2019-02-05T20:51:30.490Z,15.73
2019-02-05T20:54:11.335Z,16.20
2019-02-05T20:56:52.684Z,16.90
2019-02-05T20:59:33.805Z,17.27
2019-02-05T21:02:14.622Z,17.83
2019-02-05T21:04:55.775Z,15.87
2019-02-05T21:07:36.734Z,17.10
2019-02-05T21:10:17.495Z,25.27
2019-02-05T21:12:58.879Z,19.83
2019-02-05T21:15:39.772Z,18.10
2019-02-05T21:18:21.270Z,18.90
2019-02-05T21:21:03.115Z,17.73
2019-02-05T21:23:44.142Z,16.10
2019-02-05T21:26:24.681Z,15.87
2019-02-05T21:29:05.363Z,18.30
2019-02-05T21:31:45.923Z,15.50
2019-02-05T21:34:27.283Z,15.37
2019-02-05T21:36:56.452Z,16.87
2019-02-05T21:39:44.966Z,15.50
2019-02-05T21:42:33.487Z,15.27
2019-02-05T21:45:22.011Z,15.47
2019-02-05T21:48:10.483Z,29.53
2019-02-05T21:50:51.515Z,16.87
2019-02-05T21:53:32.779Z,15.83
2019-02-05T21:56:13.644Z,14.87
2019-02-05T21:58:54.316Z,16.33
2019-02-05T22:01:35.156Z,13.93
2019-02-05T22:04:26.451Z,15.30
2019-02-05T22:06:58.773Z,16.30
2019-02-05T22:09:39.839Z,18.00
2019-02-05T22:12:21.664Z,19.23
2019-02-05T22:15:02.774Z,18.03
2019-02-05T22:17:32.016Z,15.43
2019-02-05T22:20:21.693Z,14.50
2019-02-05T22:23:10.031Z,14.67
2019-02-05T22:25:58.331Z,14.67
2019-02-05T22:28:46.616Z,13.00
2019-02-05T22:31:35.502Z,15.70
2019-02-05T22:34:25.996Z,17.67
2019-02-05T22:37:14.568Z,25.97
2019-02-05T22:40:03.075Z,15.90
2019-02-05T22:42:51.379Z,14.17
2019-02-05T22:45:41.155Z,16.43
2019-02-05T22:48:29.683Z,16.03
2019-02-05T22:50:58.931Z,16.53
2019-02-05T22:53:49.115Z,15.23
2019-02-05T22:56:37.625Z,15.53
2019-02-05T22:59:26.639Z,13.27
2019-02-05T23:02:14.931Z,14.27
2019-02-05T23:05:22.312Z,13.80
2019-02-05T23:08:10.791Z,13.83
2019-02-05T23:11:18.176Z,13.53
2019-02-05T23:14:06.810Z,15.33
2019-02-05T23:16:55.211Z,13.40
2019-02-05T23:19:43.954Z,14.80
2019-02-05T23:22:32.259Z,16.00
2019-02-05T23:25:20.741Z,16.20
2019-02-05T23:28:09.259Z,15.90
2019-02-05T23:30:57.555Z,16.00
2019-02-05T23:33:45.747Z,16.43
2019-02-05T23:36:34.227Z,13.83
2019-02-05T23:39:22.423Z,14.30
2019-02-05T23:42:10.927Z,14.47
2019-02-05T23:45:00.854Z,14.63
2019-02-05T23:47:49.615Z,14.23
2019-02-05T23:50:30.931Z,14.30
2019-02-05T23:53:11.695Z,14.57
2019-02-05T23:55:52.652Z,15.93
2019-02-05T23:58:33.751Z,14.80
